sensor_id;sensor_type;location;lat;lon;timestamp;P1;durP1;ratioP1;P2;durP2;ratioP2
48987;SDS011;34799;51.440;-2.534;2023-11-21T00:01:17;2.55;;;0.52;;
48987;SDS011;34799;51.440;-2.534;2023-11-21T00:03:44;1.42;;;0.20;;
48987;SDS011;34799;51.440;-2.534;2023-11-21T00:06:11;3.30;;;0.25;;
48987;SDS011;34799;51.440;-2.534;2023-11-21T00:08:39;2.35;;;0.20;;
48987;SDS011;34799;51.440;-2.534;2023-11-21T00:11:07;1.95;;;0.17;;
48987;SDS011;34799;51.440;-2.534;2023-11-21T00:13:35;2.40;;;0.20;;
48987;SDS011;34799;51.440;-2.534;2023-11-21T00:16:04;2.05;;;0.30;;
48987;SDS011;34799;51.440;-2.534;2023-11-21T00:18:32;3.20;;;0.30;;
48987;SDS011;34799;51.440;-2.534;2023-11-21T00:21:00;2.53;;;0.20;;
48987;SDS011;34799;51.440;-2.534;2023-11-21T00:23:27;2.20;;;0.10;;
48987;SDS011;34799;51.440;-2.534;2023-11-21T00:25:54;1.52;;;0.38;;
48987;SDS011;34799;51.440;-2.534;2023-11-21T00:28:21;1.85;;;0.20;;
48987;SDS011;34799;51.440;-2.534;2023-11-21T00:30:49;2.33;;;0.20;;
48987;SDS011;34799;51.440;-2.534;2023-11-21T00:33:16;1.58;;;0.10;;
48987;SDS011;34799;51.440;-2.534;2023-11-21T00:35:45;1.52;;;0.10;;
48987;SDS011;34799;51.440;-2.534;2023-11-21T00:38:13;2.15;;;0.20;;
48987;SDS011;34799;51.440;-2.534;2023-11-21T00:40:41;0.70;;;0.10;;
48987;SDS011;34799;51.440;-2.534;2023-11-21T00:43:09;2.13;;;0.20;;
48987;SDS011;34799;51.440;-2.534;2023-11-21T00:45:37;0.88;;;0.10;;
48987;SDS011;34799;51.440;-2.534;2023-11-21T00:48:04;2.05;;;0.20;;
48987;SDS011;34799;51.440;-2.534;2023-11-21T00:50:31;1.85;;;0.10;;
48987;SDS011;34799;51.440;-2.534;2023-11-21T00:52:58;0.38;;;0.10;;
48987;SDS011;34799;51.440;-2.534;2023-11-21T00:55:26;2.80;;;0.10;;
48987;SDS011;34799;51.440;-2.534;2023-11-21T00:57:54;1.58;;;0.10;;
48987;SDS011;34799;51.440;-2.534;2023-11-21T01:00:22;2.33;;;0.20;;
48987;SDS011;34799;51.440;-2.534;2023-11-21T01:02:50;1.45;;;0.10;;
48987;SDS011;34799;51.440;-2.534;2023-11-21T01:05:17;0.70;;;0.10;;
48987;SDS011;34799;51.440;-2.534;2023-11-21T01:07:47;1.77;;;0.15;;
48987;SDS011;34799;51.440;-2.534;2023-11-21T01:10:16;1.05;;;0.10;;
48987;SDS011;34799;51.440;-2.534;2023-11-21T01:12:44;3.83;;;0.40;;
48987;SDS011;34799;51.440;-2.534;2023-11-21T01:15:12;3.95;;;0.20;;
48987;SDS011;34799;51.440;-2.534;2023-11-21T01:17:40;2.28;;;0.20;;
48987;SDS011;34799;51.440;-2.534;2023-11-21T01:20:08;2.65;;;0.20;;
48987;SDS011;34799;51.440;-2.534;2023-11-21T01:22:39;2.08;;;0.10;;
48987;SDS011;34799;51.440;-2.534;2023-11-21T01:25:08;10.68;;;0.93;;
48987;SDS011;34799;51.440;-2.534;2023-11-21T01:27:37;3.15;;;0.30;;
48987;SDS011;34799;51.440;-2.534;2023-11-21T01:30:05;2.22;;;0.10;;
48987;SDS011;34799;51.440;-2.534;2023-11-21T01:32:35;4.75;;;0.20;;
48987;SDS011;34799;51.440;-2.534;2023-11-21T01:35:03;3.22;;;0.20;;
48987;SDS011;34799;51.440;-2.534;2023-11-21T01:37:32;2.83;;;0.50;;
48987;SDS011;34799;51.440;-2.534;2023-11-21T01:40:00;0.82;;;0.20;;
48987;SDS011;34799;51.440;-2.534;2023-11-21T01:42:29;0.82;;;0.05;;
48987;SDS011;34799;51.440;-2.534;2023-11-21T01:44:56;4.47;;;0.20;;
48987;SDS011;34799;51.440;-2.534;2023-11-21T01:47:24;5.05;;;0.30;;
48987;SDS011;34799;51.440;-2.534;2023-11-21T01:49:52;0.73;;;0.13;;
48987;SDS011;34799;51.440;-2.534;2023-11-21T01:52:21;1.33;;;0.28;;
48987;SDS011;34799;51.440;-2.534;2023-11-21T01:54:49;2.60;;;0.20;;
48987;SDS011;34799;51.440;-2.534;2023-11-21T01:57:19;2.33;;;0.20;;
48987;SDS011;34799;51.440;-2.534;2023-11-21T01:59:47;2.65;;;0.40;;
48987;SDS011;34799;51.440;-2.534;2023-11-21T02:02:17;1.45;;;0.10;;
48987;SDS011;34799;51.440;-2.534;2023-11-21T02:04:46;1.55;;;0.20;;
48987;SDS011;34799;51.440;-2.534;2023-11-21T02:07:13;3.75;;;0.20;;
48987;SDS011;34799;51.440;-2.534;2023-11-21T02:09:41;4.88;;;0.43;;
48987;SDS011;34799;51.440;-2.534;2023-11-21T02:12:09;2.15;;;0.10;;
48987;SDS011;34799;51.440;-2.534;2023-11-21T02:14:38;3.67;;;0.20;;
48987;SDS011;34799;51.440;-2.534;2023-11-21T02:17:06;3.45;;;0.20;;
48987;SDS011;34799;51.440;-2.534;2023-11-21T02:19:35;1.55;;;0.10;;
48987;SDS011;34799;51.440;-2.534;2023-11-21T02:22:03;5.55;;;0.70;;
48987;SDS011;34799;51.440;-2.534;2023-11-21T02:24:33;1.20;;;0.30;;
48987;SDS011;34799;51.440;-2.534;2023-11-21T02:27:00;1.42;;;0.30;;
48987;SDS011;34799;51.440;-2.534;2023-11-21T02:29:29;3.72;;;0.20;;
48987;SDS011;34799;51.440;-2.534;2023-11-21T02:31:57;2.55;;;0.30;;
48987;SDS011;34799;51.440;-2.534;2023-11-21T02:34:24;1.40;;;0.20;;
48987;SDS011;34799;51.440;-2.534;2023-11-21T02:36:51;1.63;;;0.73;;
48987;SDS011;34799;51.440;-2.534;2023-11-21T02:39:19;0.80;;;0.30;;
48987;SDS011;34799;51.440;-2.534;2023-11-21T02:41:49;3.03;;;0.30;;
48987;SDS011;34799;51.440;-2.534;2023-11-21T02:44:16;0.77;;;0.35;;
48987;SDS011;34799;51.440;-2.534;2023-11-21T02:46:43;2.17;;;0.30;;
48987;SDS011;34799;51.440;-2.534;2023-11-21T02:49:11;1.75;;;0.47;;
48987;SDS011;34799;51.440;-2.534;2023-11-21T02:51:38;4.55;;;0.50;;
48987;SDS011;34799;51.440;-2.534;2023-11-21T02:54:07;3.20;;;0.47;;
48987;SDS011;34799;51.440;-2.534;2023-11-21T02:56:35;2.75;;;0.40;;
48987;SDS011;34799;51.440;-2.534;2023-11-21T02:59:03;2.40;;;0.50;;
48987;SDS011;34799;51.440;-2.534;2023-11-21T03:01:31;1.63;;;0.40;;
48987;SDS011;34799;51.440;-2.534;2023-11-21T03:03:59;3.72;;;0.50;;
48987;SDS011;34799;51.440;-2.534;2023-11-21T03:06:29;3.15;;;0.47;;
48987;SDS011;34799;51.440;-2.534;2023-11-21T03:08:57;4.63;;;0.77;;
48987;SDS011;34799;51.440;-2.534;2023-11-21T03:11:24;2.05;;;0.50;;
48987;SDS011;34799;51.440;-2.534;2023-11-21T03:13:51;1.95;;;0.60;;
48987;SDS011;34799;51.440;-2.534;2023-11-21T03:16:18;2.10;;;0.88;;
48987;SDS011;34799;51.440;-2.534;2023-11-21T03:18:45;1.80;;;0.70;;
48987;SDS011;34799;51.440;-2.534;2023-11-21T03:21:13;5.03;;;0.88;;
48987;SDS011;34799;51.440;-2.534;2023-11-21T03:23:41;3.03;;;0.95;;
48987;SDS011;34799;51.440;-2.534;2023-11-21T03:26:11;2.22;;;0.73;;
48987;SDS011;34799;51.440;-2.534;2023-11-21T03:28:39;2.85;;;0.80;;
48987;SDS011;34799;51.440;-2.534;2023-11-21T03:31:06;2.90;;;1.15;;
48987;SDS011;34799;51.440;-2.534;2023-11-21T03:33:35;2.45;;;1.25;;
48987;SDS011;34799;51.440;-2.534;2023-11-21T03:36:03;2.58;;;1.45;;
48987;SDS011;34799;51.440;-2.534;2023-11-21T03:38:34;2.67;;;1.67;;
48987;SDS011;34799;51.440;-2.534;2023-11-21T03:41:02;3.03;;;1.63;;
48987;SDS011;34799;51.440;-2.534;2023-11-21T03:43:30;3.80;;;1.60;;
48987;SDS011;34799;51.440;-2.534;2023-11-21T03:45:58;5.75;;;1.67;;
48987;SDS011;34799;51.440;-2.534;2023-11-21T03:48:26;3.22;;;2.15;;
48987;SDS011;34799;51.440;-2.534;2023-11-21T03:50:53;4.80;;;2.20;;
48987;SDS011;34799;51.440;-2.534;2023-11-21T03:53:22;6.90;;;2.30;;
48987;SDS011;34799;51.440;-2.534;2023-11-21T03:55:49;6.95;;;2.88;;
48987;SDS011;34799;51.440;-2.534;2023-11-21T03:58:16;7.15;;;3.42;;
48987;SDS011;34799;51.440;-2.534;2023-11-21T04:00:46;5.10;;;3.17;;
48987;SDS011;34799;51.440;-2.534;2023-11-21T04:03:16;6.70;;;3.75;;
48987;SDS011;34799;51.440;-2.534;2023-11-21T04:05:43;5.43;;;3.65;;
48987;SDS011;34799;51.440;-2.534;2023-11-21T04:08:12;6.47;;;3.80;;
48987;SDS011;34799;51.440;-2.534;2023-11-21T04:10:39;5.95;;;4.18;;
48987;SDS011;34799;51.440;-2.534;2023-11-21T04:13:06;6.13;;;4.20;;
48987;SDS011;34799;51.440;-2.534;2023-11-21T04:15:33;6.75;;;4.63;;
48987;SDS011;34799;51.440;-2.534;2023-11-21T04:18:00;5.38;;;3.80;;
48987;SDS011;34799;51.440;-2.534;2023-11-21T04:20:29;6.60;;;4.18;;
48987;SDS011;34799;51.440;-2.534;2023-11-21T04:22:57;5.43;;;4.07;;
48987;SDS011;34799;51.440;-2.534;2023-11-21T04:25:24;5.25;;;4.38;;
48987;SDS011;34799;51.440;-2.534;2023-11-21T04:27:53;5.68;;;3.95;;
48987;SDS011;34799;51.440;-2.534;2023-11-21T04:30:21;4.47;;;3.42;;
48987;SDS011;34799;51.440;-2.534;2023-11-21T04:32:48;5.22;;;3.70;;
48987;SDS011;34799;51.440;-2.534;2023-11-21T04:35:17;5.05;;;3.08;;
48987;SDS011;34799;51.440;-2.534;2023-11-21T04:37:44;3.20;;;2.67;;
48987;SDS011;34799;51.440;-2.534;2023-11-21T04:40:11;4.65;;;1.90;;
48987;SDS011;34799;51.440;-2.534;2023-11-21T04:42:38;3.90;;;2.13;;
48987;SDS011;34799;51.440;-2.534;2023-11-21T04:45:06;2.53;;;0.75;;
48987;SDS011;34799;51.440;-2.534;2023-11-21T04:47:38;3.13;;;0.60;;
48987;SDS011;34799;51.440;-2.534;2023-11-21T04:50:05;1.25;;;0.55;;
48987;SDS011;34799;51.440;-2.534;2023-11-21T04:52:33;0.40;;;0.40;;
48987;SDS011;34799;51.440;-2.534;2023-11-21T04:55:01;1.00;;;0.30;;
48987;SDS011;34799;51.440;-2.534;2023-11-21T04:57:29;1.48;;;0.40;;
48987;SDS011;34799;51.440;-2.534;2023-11-21T04:59:57;1.63;;;0.35;;
48987;SDS011;34799;51.440;-2.534;2023-11-21T05:02:25;1.85;;;0.30;;
48987;SDS011;34799;51.440;-2.534;2023-11-21T05:04:56;1.15;;;0.30;;
48987;SDS011;34799;51.440;-2.534;2023-11-21T05:07:24;1.73;;;0.35;;
48987;SDS011;34799;51.440;-2.534;2023-11-21T05:09:56;1.35;;;0.30;;
48987;SDS011;34799;51.440;-2.534;2023-11-21T05:12:24;0.75;;;0.30;;
48987;SDS011;34799;51.440;-2.534;2023-11-21T05:14:51;0.43;;;0.30;;
48987;SDS011;34799;51.440;-2.534;2023-11-21T05:17:18;1.17;;;0.40;;
48987;SDS011;34799;51.440;-2.534;2023-11-21T05:19:46;1.63;;;0.52;;
48987;SDS011;34799;51.440;-2.534;2023-11-21T05:22:15;1.25;;;0.50;;
48987;SDS011;34799;51.440;-2.534;2023-11-21T05:24:42;0.55;;;0.40;;
48987;SDS011;34799;51.440;-2.534;2023-11-21T05:27:11;1.85;;;0.40;;
48987;SDS011;34799;51.440;-2.534;2023-11-21T05:29:39;1.02;;;0.40;;
48987;SDS011;34799;51.440;-2.534;2023-11-21T05:32:07;0.60;;;0.32;;
48987;SDS011;34799;51.440;-2.534;2023-11-21T05:34:35;1.92;;;0.50;;
48987;SDS011;34799;51.440;-2.534;2023-11-21T05:37:02;1.10;;;0.30;;
48987;SDS011;34799;51.440;-2.534;2023-11-21T05:39:29;4.72;;;0.60;;
48987;SDS011;34799;51.440;-2.534;2023-11-21T05:41:56;1.77;;;0.30;;
48987;SDS011;34799;51.440;-2.534;2023-11-21T05:44:24;1.10;;;0.40;;
48987;SDS011;34799;51.440;-2.534;2023-11-21T05:46:52;0.57;;;0.30;;
48987;SDS011;34799;51.440;-2.534;2023-11-21T05:49:19;1.95;;;0.40;;
48987;SDS011;34799;51.440;-2.534;2023-11-21T05:51:53;2.35;;;0.20;;
48987;SDS011;34799;51.440;-2.534;2023-11-21T05:54:20;2.92;;;0.20;;
48987;SDS011;34799;51.440;-2.534;2023-11-21T05:56:48;0.65;;;0.30;;
48987;SDS011;34799;51.440;-2.534;2023-11-21T05:59:16;1.17;;;0.40;;
48987;SDS011;34799;51.440;-2.534;2023-11-21T06:01:43;0.25;;;0.20;;
48987;SDS011;34799;51.440;-2.534;2023-11-21T06:04:13;1.65;;;0.32;;
48987;SDS011;34799;51.440;-2.534;2023-11-21T06:06:40;0.63;;;0.10;;
48987;SDS011;34799;51.440;-2.534;2023-11-21T06:09:07;0.25;;;0.10;;
48987;SDS011;34799;51.440;-2.534;2023-11-21T06:11:36;0.25;;;0.10;;
48987;SDS011;34799;51.440;-2.534;2023-11-21T06:14:03;0.30;;;0.10;;
48987;SDS011;34799;51.440;-2.534;2023-11-21T06:16:33;1.10;;;0.20;;
48987;SDS011;34799;51.440;-2.534;2023-11-21T06:19:01;1.55;;;0.10;;
48987;SDS011;34799;51.440;-2.534;2023-11-21T06:21:29;1.10;;;0.10;;
48987;SDS011;34799;51.440;-2.534;2023-11-21T06:23:57;0.80;;;0.10;;
48987;SDS011;34799;51.440;-2.534;2023-11-21T06:26:24;0.20;;;0.10;;
48987;SDS011;34799;51.440;-2.534;2023-11-21T06:28:52;1.50;;;0.20;;
48987;SDS011;34799;51.440;-2.534;2023-11-21T06:31:20;0.80;;;0.20;;
48987;SDS011;34799;51.440;-2.534;2023-11-21T06:33:48;0.20;;;0.10;;
48987;SDS011;34799;51.440;-2.534;2023-11-21T06:36:16;1.05;;;0.20;;
48987;SDS011;34799;51.440;-2.534;2023-11-21T06:38:43;1.48;;;0.20;;
48987;SDS011;34799;51.440;-2.534;2023-11-21T06:41:12;0.22;;;0.13;;
48987;SDS011;34799;51.440;-2.534;2023-11-21T06:43:42;1.92;;;0.10;;
48987;SDS011;34799;51.440;-2.534;2023-11-21T06:46:13;1.52;;;0.30;;
48987;SDS011;34799;51.440;-2.534;2023-11-21T06:48:44;0.85;;;0.10;;
48987;SDS011;34799;51.440;-2.534;2023-11-21T06:51:12;1.08;;;0.30;;
48987;SDS011;34799;51.440;-2.534;2023-11-21T06:53:39;0.55;;;0.10;;
48987;SDS011;34799;51.440;-2.534;2023-11-21T06:56:19;0.65;;;0.20;;
48987;SDS011;34799;51.440;-2.534;2023-11-21T06:58:46;1.25;;;0.17;;
48987;SDS011;34799;51.440;-2.534;2023-11-21T07:01:13;1.92;;;0.10;;
48987;SDS011;34799;51.440;-2.534;2023-11-21T07:03:41;1.13;;;0.20;;
48987;SDS011;34799;51.440;-2.534;2023-11-21T07:06:08;0.70;;;0.10;;
48987;SDS011;34799;51.440;-2.534;2023-11-21T07:08:35;1.05;;;0.10;;
48987;SDS011;34799;51.440;-2.534;2023-11-21T07:11:04;1.95;;;0.20;;
48987;SDS011;34799;51.440;-2.534;2023-11-21T07:13:31;0.50;;;0.10;;
48987;SDS011;34799;51.440;-2.534;2023-11-21T07:15:59;2.08;;;0.10;;
48987;SDS011;34799;51.440;-2.534;2023-11-21T07:18:27;1.38;;;0.40;;
48987;SDS011;34799;51.440;-2.534;2023-11-21T07:20:55;2.75;;;0.15;;
48987;SDS011;34799;51.440;-2.534;2023-11-21T07:23:22;0.77;;;0.10;;
48987;SDS011;34799;51.440;-2.534;2023-11-21T07:25:49;1.13;;;0.10;;
48987;SDS011;34799;51.440;-2.534;2023-11-21T07:28:16;1.15;;;0.10;;
48987;SDS011;34799;51.440;-2.534;2023-11-21T07:30:43;0.88;;;0.20;;
48987;SDS011;34799;51.440;-2.534;2023-11-21T07:33:11;2.08;;;0.20;;
48987;SDS011;34799;51.440;-2.534;2023-11-21T07:35:39;1.25;;;0.10;;
48987;SDS011;34799;51.440;-2.534;2023-11-21T07:38:07;0.70;;;0.00;;
48987;SDS011;34799;51.440;-2.534;2023-11-21T07:40:34;1.33;;;0.10;;
48987;SDS011;34799;51.440;-2.534;2023-11-21T07:43:03;0.20;;;0.10;;
48987;SDS011;34799;51.440;-2.534;2023-11-21T07:45:33;0.43;;;0.05;;
48987;SDS011;34799;51.440;-2.534;2023-11-21T07:48:01;1.27;;;0.10;;
48987;SDS011;34799;51.440;-2.534;2023-11-21T07:50:31;2.00;;;0.08;;
48987;SDS011;34799;51.440;-2.534;2023-11-21T07:52:59;0.65;;;0.00;;
48987;SDS011;34799;51.440;-2.534;2023-11-21T07:55:27;2.17;;;0.10;;
48987;SDS011;34799;51.440;-2.534;2023-11-21T07:57:55;0.63;;;0.10;;
48987;SDS011;34799;51.440;-2.534;2023-11-21T08:00:22;1.02;;;0.10;;
48987;SDS011;34799;51.440;-2.534;2023-11-21T08:02:50;0.35;;;0.00;;
48987;SDS011;34799;51.440;-2.534;2023-11-21T08:05:17;1.10;;;0.00;;
48987;SDS011;34799;51.440;-2.534;2023-11-21T08:07:47;1.23;;;0.30;;
48987;SDS011;34799;51.440;-2.534;2023-11-21T08:10:14;3.42;;;0.20;;
48987;SDS011;34799;51.440;-2.534;2023-11-21T08:12:42;0.88;;;0.20;;
48987;SDS011;34799;51.440;-2.534;2023-11-21T08:15:09;0.40;;;0.10;;
48987;SDS011;34799;51.440;-2.534;2023-11-21T08:17:37;1.75;;;0.10;;
48987;SDS011;34799;51.440;-2.534;2023-11-21T08:20:05;1.52;;;0.20;;
48987;SDS011;34799;51.440;-2.534;2023-11-21T08:22:35;1.17;;;0.00;;
48987;SDS011;34799;51.440;-2.534;2023-11-21T08:25:03;2.25;;;0.10;;
48987;SDS011;34799;51.440;-2.534;2023-11-21T08:27:31;1.10;;;0.00;;
48987;SDS011;34799;51.440;-2.534;2023-11-21T08:30:04;1.75;;;0.00;;
48987;SDS011;34799;51.440;-2.534;2023-11-21T08:32:32;3.13;;;0.30;;
48987;SDS011;34799;51.440;-2.534;2023-11-21T08:34:59;1.17;;;0.00;;
48987;SDS011;34799;51.440;-2.534;2023-11-21T08:37:28;1.42;;;0.20;;
48987;SDS011;34799;51.440;-2.534;2023-11-21T08:39:57;1.73;;;0.10;;
48987;SDS011;34799;51.440;-2.534;2023-11-21T08:42:26;1.08;;;0.00;;
48987;SDS011;34799;51.440;-2.534;2023-11-21T08:44:56;0.75;;;0.10;;
48987;SDS011;34799;51.440;-2.534;2023-11-21T08:47:28;3.03;;;0.10;;
48987;SDS011;34799;51.440;-2.534;2023-11-21T08:49:56;2.05;;;0.10;;
48987;SDS011;34799;51.440;-2.534;2023-11-21T08:52:26;3.40;;;0.05;;
48987;SDS011;34799;51.440;-2.534;2023-11-21T08:54:53;1.65;;;0.10;;
48987;SDS011;34799;51.440;-2.534;2023-11-21T08:57:25;1.75;;;0.00;;
48987;SDS011;34799;51.440;-2.534;2023-11-21T08:59:53;0.22;;;0.00;;
48987;SDS011;34799;51.440;-2.534;2023-11-21T09:02:25;2.10;;;0.47;;
48987;SDS011;34799;51.440;-2.534;2023-11-21T09:04:53;0.20;;;0.00;;
48987;SDS011;34799;51.440;-2.534;2023-11-21T09:07:20;0.28;;;0.00;;
48987;SDS011;34799;51.440;-2.534;2023-11-21T09:09:48;0.73;;;0.00;;
48987;SDS011;34799;51.440;-2.534;2023-11-21T09:12:16;0.15;;;0.00;;
48987;SDS011;34799;51.440;-2.534;2023-11-21T09:14:46;0.13;;;0.13;;
48987;SDS011;34799;51.440;-2.534;2023-11-21T09:17:13;0.80;;;0.15;;
48987;SDS011;34799;51.440;-2.534;2023-11-21T09:19:41;0.85;;;0.10;;
48987;SDS011;34799;51.440;-2.534;2023-11-21T09:24:45;0.10;;;0.00;;
48987;SDS011;34799;51.440;-2.534;2023-11-21T09:27:12;0.60;;;0.20;;
48987;SDS011;34799;51.440;-2.534;2023-11-21T09:29:39;1.02;;;0.03;;
48987;SDS011;34799;51.440;-2.534;2023-11-21T09:32:07;1.35;;;0.10;;
48987;SDS011;34799;51.440;-2.534;2023-11-21T09:34:34;1.17;;;0.10;;
48987;SDS011;34799;51.440;-2.534;2023-11-21T09:37:05;1.30;;;0.10;;
48987;SDS011;34799;51.440;-2.534;2023-11-21T09:39:33;0.98;;;0.10;;
48987;SDS011;34799;51.440;-2.534;2023-11-21T09:42:46;1.48;;;0.10;;
48987;SDS011;34799;51.440;-2.534;2023-11-21T09:45:32;1.00;;;0.10;;
48987;SDS011;34799;51.440;-2.534;2023-11-21T09:48:01;2.97;;;0.10;;
48987;SDS011;34799;51.440;-2.534;2023-11-21T09:50:29;0.25;;;0.20;;
48987;SDS011;34799;51.440;-2.534;2023-11-21T09:53:05;4.30;;;0.20;;
48987;SDS011;34799;51.440;-2.534;2023-11-21T09:55:44;1.55;;;0.13;;
48987;SDS011;34799;51.440;-2.534;2023-11-21T09:58:14;0.95;;;0.10;;
48987;SDS011;34799;51.440;-2.534;2023-11-21T10:00:45;0.85;;;0.20;;
48987;SDS011;34799;51.440;-2.534;2023-11-21T10:03:13;0.30;;;0.10;;
48987;SDS011;34799;51.440;-2.534;2023-11-21T10:05:44;1.75;;;0.10;;
48987;SDS011;34799;51.440;-2.534;2023-11-21T10:08:12;0.93;;;0.20;;
48987;SDS011;34799;51.440;-2.534;2023-11-21T10:10:44;2.63;;;0.10;;
48987;SDS011;34799;51.440;-2.534;2023-11-21T10:13:15;0.70;;;0.20;;
48987;SDS011;34799;51.440;-2.534;2023-11-21T10:15:46;2.65;;;0.10;;
48987;SDS011;34799;51.440;-2.534;2023-11-21T10:18:17;1.45;;;0.13;;
48987;SDS011;34799;51.440;-2.534;2023-11-21T10:20:45;0.98;;;0.10;;
48987;SDS011;34799;51.440;-2.534;2023-11-21T10:23:19;0.40;;;0.10;;
48987;SDS011;34799;51.440;-2.534;2023-11-21T10:25:48;2.55;;;0.20;;
48987;SDS011;34799;51.440;-2.534;2023-11-21T10:28:17;0.30;;;0.10;;
48987;SDS011;34799;51.440;-2.534;2023-11-21T10:30:44;1.05;;;0.20;;
48987;SDS011;34799;51.440;-2.534;2023-11-21T10:33:13;0.73;;;0.10;;
48987;SDS011;34799;51.440;-2.534;2023-11-21T10:35:46;1.17;;;0.20;;
48987;SDS011;34799;51.440;-2.534;2023-11-21T10:38:17;1.25;;;0.20;;
48987;SDS011;34799;51.440;-2.534;2023-11-21T10:40:45;1.40;;;0.20;;
48987;SDS011;34799;51.440;-2.534;2023-11-21T10:43:14;0.85;;;0.30;;
48987;SDS011;34799;51.440;-2.534;2023-11-21T10:45:45;2.50;;;0.20;;
48987;SDS011;34799;51.440;-2.534;2023-11-21T10:48:13;1.27;;;0.28;;
48987;SDS011;34799;51.440;-2.534;2023-11-21T10:50:44;1.52;;;0.20;;
48987;SDS011;34799;51.440;-2.534;2023-11-21T10:53:12;3.03;;;0.28;;
48987;SDS011;34799;51.440;-2.534;2023-11-21T10:55:40;2.20;;;0.20;;
48987;SDS011;34799;51.440;-2.534;2023-11-21T10:58:08;1.10;;;0.30;;
48987;SDS011;34799;51.440;-2.534;2023-11-21T11:00:40;4.47;;;0.20;;
48987;SDS011;34799;51.440;-2.534;2023-11-21T11:03:07;0.98;;;0.30;;
48987;SDS011;34799;51.440;-2.534;2023-11-21T11:05:42;1.35;;;0.32;;
48987;SDS011;34799;51.440;-2.534;2023-11-21T11:08:18;1.40;;;0.20;;
48987;SDS011;34799;51.440;-2.534;2023-11-21T11:10:52;1.30;;;0.30;;
48987;SDS011;34799;51.440;-2.534;2023-11-21T11:13:19;3.05;;;0.30;;
48987;SDS011;34799;51.440;-2.534;2023-11-21T11:15:48;3.38;;;0.50;;
48987;SDS011;34799;51.440;-2.534;2023-11-21T11:18:15;3.92;;;0.40;;
48987;SDS011;34799;51.440;-2.534;2023-11-21T11:20:43;1.50;;;0.73;;
48987;SDS011;34799;51.440;-2.534;2023-11-21T11:23:32;3.70;;;0.30;;
48987;SDS011;34799;51.440;-2.534;2023-11-21T11:26:31;1.10;;;0.30;;
48987;SDS011;34799;51.440;-2.534;2023-11-21T11:29:23;2.75;;;0.40;;
48987;SDS011;34799;51.440;-2.534;2023-11-21T11:32:18;2.38;;;0.40;;
48987;SDS011;34799;51.440;-2.534;2023-11-21T11:35:10;1.35;;;0.20;;
48987;SDS011;34799;51.440;-2.534;2023-11-21T11:37:52;0.50;;;0.20;;
48987;SDS011;34799;51.440;-2.534;2023-11-21T11:40:22;0.57;;;0.20;;
48987;SDS011;34799;51.440;-2.534;2023-11-21T11:42:58;1.15;;;0.50;;
48987;SDS011;34799;51.440;-2.534;2023-11-21T11:45:32;0.50;;;0.20;;
48987;SDS011;34799;51.440;-2.534;2023-11-21T11:48:01;2.35;;;0.35;;
48987;SDS011;34799;51.440;-2.534;2023-11-21T11:50:30;0.80;;;0.40;;
48987;SDS011;34799;51.440;-2.534;2023-11-21T11:53:11;4.53;;;0.85;;
48987;SDS011;34799;51.440;-2.534;2023-11-21T11:55:43;2.63;;;0.40;;
48987;SDS011;34799;51.440;-2.534;2023-11-21T11:58:10;2.05;;;0.32;;
48987;SDS011;34799;51.440;-2.534;2023-11-21T12:00:38;1.40;;;0.30;;
48987;SDS011;34799;51.440;-2.534;2023-11-21T12:03:07;3.05;;;0.60;;
48987;SDS011;34799;51.440;-2.534;2023-11-21T12:05:42;3.60;;;0.40;;
48987;SDS011;34799;51.440;-2.534;2023-11-21T12:08:39;2.97;;;0.50;;
48987;SDS011;34799;51.440;-2.534;2023-11-21T12:11:09;1.27;;;0.30;;
48987;SDS011;34799;51.440;-2.534;2023-11-21T12:13:40;4.15;;;0.50;;
48987;SDS011;34799;51.440;-2.534;2023-11-21T12:16:09;2.55;;;0.32;;
48987;SDS011;34799;51.440;-2.534;2023-11-21T12:18:38;1.40;;;0.25;;
48987;SDS011;34799;51.440;-2.534;2023-11-21T12:21:05;1.85;;;0.30;;
48987;SDS011;34799;51.440;-2.534;2023-11-21T12:23:36;1.70;;;0.30;;
48987;SDS011;34799;51.440;-2.534;2023-11-21T12:26:04;1.42;;;0.30;;
48987;SDS011;34799;51.440;-2.534;2023-11-21T12:28:31;2.38;;;0.68;;
48987;SDS011;34799;51.440;-2.534;2023-11-21T12:31:00;1.40;;;0.30;;
48987;SDS011;34799;51.440;-2.534;2023-11-21T12:33:30;1.38;;;0.30;;
48987;SDS011;34799;51.440;-2.534;2023-11-21T12:35:58;1.52;;;0.50;;
48987;SDS011;34799;51.440;-2.534;2023-11-21T12:38:33;3.53;;;0.50;;
48987;SDS011;34799;51.440;-2.534;2023-11-21T12:41:02;2.65;;;0.50;;
48987;SDS011;34799;51.440;-2.534;2023-11-21T12:43:31;0.70;;;0.30;;
48987;SDS011;34799;51.440;-2.534;2023-11-21T12:46:12;3.90;;;0.65;;
48987;SDS011;34799;51.440;-2.534;2023-11-21T12:48:42;3.28;;;0.88;;
48987;SDS011;34799;51.440;-2.534;2023-11-21T12:51:11;2.40;;;0.40;;
48987;SDS011;34799;51.440;-2.534;2023-11-21T12:53:40;2.13;;;0.30;;
48987;SDS011;34799;51.440;-2.534;2023-11-21T12:56:12;3.70;;;0.65;;
48987;SDS011;34799;51.440;-2.534;2023-11-21T12:58:44;3.08;;;0.30;;
48987;SDS011;34799;51.440;-2.534;2023-11-21T13:01:14;2.72;;;0.47;;
48987;SDS011;34799;51.440;-2.534;2023-11-21T13:03:48;3.10;;;0.50;;
48987;SDS011;34799;51.440;-2.534;2023-11-21T13:06:17;1.75;;;0.50;;
48987;SDS011;34799;51.440;-2.534;2023-11-21T13:08:47;4.05;;;0.70;;
48987;SDS011;34799;51.440;-2.534;2023-11-21T13:11:16;4.43;;;0.47;;
48987;SDS011;34799;51.440;-2.534;2023-11-21T13:13:44;1.73;;;0.40;;
48987;SDS011;34799;51.440;-2.534;2023-11-21T13:16:12;3.05;;;0.43;;
48987;SDS011;34799;51.440;-2.534;2023-11-21T13:18:42;2.03;;;0.30;;
48987;SDS011;34799;51.440;-2.534;2023-11-21T13:21:10;4.30;;;0.38;;
48987;SDS011;34799;51.440;-2.534;2023-11-21T13:23:41;4.03;;;0.30;;
48987;SDS011;34799;51.440;-2.534;2023-11-21T13:26:09;1.48;;;0.57;;
48987;SDS011;34799;51.440;-2.534;2023-11-21T13:28:36;3.40;;;0.52;;
48987;SDS011;34799;51.440;-2.534;2023-11-21T13:31:05;1.65;;;0.40;;
48987;SDS011;34799;51.440;-2.534;2023-11-21T13:33:50;1.85;;;0.30;;
48987;SDS011;34799;51.440;-2.534;2023-11-21T13:36:26;4.35;;;0.82;;
48987;SDS011;34799;51.440;-2.534;2023-11-21T13:38:57;2.40;;;0.30;;
48987;SDS011;34799;51.440;-2.534;2023-11-21T13:41:25;1.45;;;0.40;;
48987;SDS011;34799;51.440;-2.534;2023-11-21T13:43:57;3.78;;;0.30;;
48987;SDS011;34799;51.440;-2.534;2023-11-21T13:46:42;1.95;;;0.30;;
48987;SDS011;34799;51.440;-2.534;2023-11-21T13:49:12;3.10;;;0.35;;
48987;SDS011;34799;51.440;-2.534;2023-11-21T13:51:41;1.30;;;0.20;;
48987;SDS011;34799;51.440;-2.534;2023-11-21T13:54:11;2.67;;;0.30;;
48987;SDS011;34799;51.440;-2.534;2023-11-21T13:56:38;1.15;;;0.40;;
48987;SDS011;34799;51.440;-2.534;2023-11-21T13:59:07;0.98;;;0.22;;
48987;SDS011;34799;51.440;-2.534;2023-11-21T14:01:52;1.40;;;0.30;;
48987;SDS011;34799;51.440;-2.534;2023-11-21T14:04:20;2.55;;;0.32;;
48987;SDS011;34799;51.440;-2.534;2023-11-21T14:07:02;0.30;;;0.20;;
48987;SDS011;34799;51.440;-2.534;2023-11-21T14:09:47;5.45;;;0.73;;
48987;SDS011;34799;51.440;-2.534;2023-11-21T14:12:16;1.30;;;0.30;;
48987;SDS011;34799;51.440;-2.534;2023-11-21T14:14:43;3.85;;;0.60;;
48987;SDS011;34799;51.440;-2.534;2023-11-21T14:17:14;1.30;;;0.30;;
48987;SDS011;34799;51.440;-2.534;2023-11-21T14:19:41;1.45;;;0.38;;
48987;SDS011;34799;51.440;-2.534;2023-11-21T14:22:10;1.42;;;0.50;;
48987;SDS011;34799;51.440;-2.534;2023-11-21T14:24:38;2.00;;;0.30;;
48987;SDS011;34799;51.440;-2.534;2023-11-21T14:27:12;2.05;;;0.60;;
48987;SDS011;34799;51.440;-2.534;2023-11-21T14:29:42;2.05;;;0.40;;
48987;SDS011;34799;51.440;-2.534;2023-11-21T14:32:11;4.15;;;0.35;;
48987;SDS011;34799;51.440;-2.534;2023-11-21T14:34:40;2.35;;;0.40;;
48987;SDS011;34799;51.440;-2.534;2023-11-21T14:37:09;2.42;;;0.45;;
48987;SDS011;34799;51.440;-2.534;2023-11-21T14:39:40;2.33;;;0.70;;
48987;SDS011;34799;51.440;-2.534;2023-11-21T14:42:11;3.28;;;0.43;;
48987;SDS011;34799;51.440;-2.534;2023-11-21T14:44:38;4.30;;;0.57;;
48987;SDS011;34799;51.440;-2.534;2023-11-21T14:47:07;2.17;;;0.50;;
48987;SDS011;34799;51.440;-2.534;2023-11-21T14:49:42;4.78;;;0.57;;